Time;durP1;ratioP1;P1;durP2;ratioP2;P2;SDS_P1;SDS_P2;PMS_P1;PMS_P2;Temp;Humidity;BMP_temperature;BMP_pressure;BME280_temperature;BME280_humidity;BME280_pressure;Samples;Min_cycle;Max_cycle;Signal;HPM_P1;HPM_P2
2021/05/13 00:01:20;;;;;;;7.70;7.10;;;;;;;20.91;58.80;93613.45;827604;71;32730;-79
2021/05/13 00:16:12;;;;;;;8.60;7.90;;;;;;;20.85;58.72;93621.62;834000;71;32266;-78
2021/05/13 00:31:09;;;;;;;9.15;8.35;;;;;;;20.73;58.79;93618.12;834045;71;30743;-75
2021/05/13 00:46:14;;;;;;;11.10;9.88;;;;;;;20.68;58.65;93617.16;827696;71;32667;-77
2021/05/13 01:01:21;;;;;;;13.00;11.45;;;;;;;20.61;58.68;93621.11;827544;71;32804;-76
2021/05/13 01:16:24;;;;;;;12.35;11.15;;;;;;;20.48;58.61;93618.52;834049;71;30282;-77
2021/05/13 01:31:10;;;;;;;14.68;12.03;;;;;;;20.33;58.54;93613.11;828478;71;30345;-80
2021/05/13 01:46:16;;;;;;;12.58;11.20;;;;;;;20.33;58.25;93604.36;835032;71;33299;-78
2021/05/13 02:01:12;;;;;;;13.13;11.83;;;;;;;20.21;58.37;93601.42;829072;71;30280;-76
2021/05/13 02:16:14;;;;;;;14.90;12.53;;;;;;;20.22;58.19;93600.30;827585;71;33223;-80
2021/05/13 02:31:09;;;;;;;14.10;12.70;;;;;;;20.20;58.01;93598.58;828191;71;30338;-77
2021/05/13 02:46:09;;;;;;;15.43;12.13;;;;;;;20.16;57.80;93600.45;828126;71;30802;-78
2021/05/13 03:01:51;;;;;;;14.45;12.95;;;;;;;20.03;57.84;93597.87;827540;71;32799;-77
2021/05/13 03:16:15;;;;;;;13.83;12.33;;;;;;;20.09;57.61;93606.47;827521;71;32679;-76
2021/05/13 03:31:15;;;;;;;15.68;11.97;;;;;;;19.90;61.76;93592.08;827761;71;33227;-79
2021/05/13 03:46:09;;;;;;;22.35;19.95;;;;;;;20.65;60.85;93598.48;829319;70;30317;-78
2021/05/13 04:01:12;;;;;;;13.90;12.40;;;;;;;20.93;59.42;93607.94;828718;71;30293;-77
2021/05/13 04:16:23;;;;;;;14.38;12.40;;;;;;;20.59;58.44;93602.06;828466;71;32792;-76
2021/05/13 04:31:15;;;;;;;16.60;13.95;;;;;;;20.03;59.96;93604.53;827768;71;33183;-76
2021/05/13 04:46:09;;;;;;;15.85;12.82;;;;;;;19.40;61.11;93598.48;823554;70;31005;-77
2021/05/13 05:01:10;;;;;;;15.08;13.20;;;;;;;19.62;60.10;93601.32;816185;71;30875;-77
2021/05/13 05:16:31;;;;;;;21.77;16.37;;;;;;;19.32;59.17;93598.21;834281;71;32785;-78
2021/05/13 05:31:11;;;;;;;17.67;14.23;;;;;;;19.32;60.01;93605.41;827891;71;31423;-80
2021/05/13 05:46:15;;;;;;;17.42;15.55;;;;;;;20.12;57.56;93604.98;827428;71;33346;-81
2021/05/13 06:01:15;;;;;;;17.02;15.23;;;;;;;20.33;56.51;93611.02;828300;71;32672;-78
2021/05/13 06:16:16;;;;;;;20.32;16.77;;;;;;;19.67;57.72;93605.53;828186;71;33533;-80
2021/05/13 06:31:09;;;;;;;31.05;23.12;;;;;;;19.46;59.85;93602.88;828641;71;30390;-80
2021/05/13 06:46:15;;;;;;;30.00;25.05;;;;;;;19.19;61.02;93599.58;814959;71;32780;-78
2021/05/13 07:01:14;;;;;;;29.65;23.92;;;;;;;18.87;63.24;93605.30;828148;71;32675;-79
2021/05/13 07:16:09;;;;;;;27.75;24.72;;;;;;;20.40;57.62;93596.42;834157;70;30291;-79
2021/05/13 07:31:09;;;;;;;24.65;21.80;;;;;;;21.33;55.31;93583.48;829374;71;30291;-79
2021/05/13 07:46:10;;;;;;;25.03;21.57;;;;;;;23.40;50.09;93567.48;834160;71;30294;-80
2021/05/13 08:01:14;;;;;;;21.90;19.70;;;;;;;24.16;47.79;93563.66;827949;71;33165;-80
2021/05/13 08:16:09;;;;;;;19.77;17.77;;;;;;;25.54;44.49;93532.90;825532;71;30358;-78
2021/05/13 08:31:08;;;;;;;22.70;20.40;;;;;;;25.03;44.41;93548.77;828435;71;29776;-76
2021/05/13 08:46:08;;;;;;;18.20;16.20;;;;;;;26.97;39.01;93516.78;830257;70;29790;-82
2021/05/13 09:16:35;;;;;;;16.00;14.30;;;;;;;25.22;42.04;93504.41;828173;71;32806;-78
2021/05/13 09:31:12;;;;;;;14.00;12.60;;;;;;;26.93;37.55;93499.95;828273;71;31363;-80
2021/05/13 09:46:13;;;;;;;13.53;12.20;;;;;;;23.18;38.05;92874.41;828666;71;32610;-77
2021/05/13 10:01:13;;;;;;;23.60;21.40;;;;;;;;;;821424;70;32814;-78
2021/05/13 10:16:15;;;;;;;11.70;10.50;;;;;;;26.21;35.72;123554.15;834962;71;32730;-75
2021/05/13 10:31:08;;;;;;;8.23;7.43;;;;;;;24.85;37.11;93430.89;834117;71;30241;-79
2021/05/13 10:46:11;;;;;;;8.60;7.63;;;;;;;24.52;34.17;93443.39;829811;71;29742;-83
2021/05/13 11:01:35;;;;;;;7.07;6.40;;;;;;;25.05;35.35;93434.44;825592;71;30888;-83
2021/05/13 11:16:47;;;;;;;11.60;9.50;;;;;;;23.98;38.30;93443.22;794925;74;32898;-82
2021/05/13 11:31:13;;;;;;;9.47;8.23;;;;;;;24.29;37.19;93425.83;828900;71;30164;-83
2021/05/13 11:46:11;;;;;;;6.03;5.30;;;;;;;24.37;39.17;93402.56;833844;71;29785;-75
2021/05/13 12:01:30;;;;;;;3.43;3.13;;;;;;;24.20;32.47;93402.19;827575;71;32772;-80
2021/05/13 12:16:08;;;;;;;2.90;2.70;;;;;;;24.26;32.14;93383.75;829098;71;29885;-83
2021/05/13 12:31:33;;;;;;;3.33;3.03;;;;;;;24.42;32.41;93361.13;827793;71;33472;-82
2021/05/13 12:46:24;;;;;;;5.60;5.10;;;;;;;24.28;34.40;93391.56;827389;71;32691;-80
2021/05/13 13:01:08;;;;;;;3.80;3.30;;;;;;;23.45;33.25;93388.23;825768;71;29707;-80
2021/05/13 13:16:19;;;;;;;2.63;2.43;;;;;;;23.16;32.30;93365.73;828341;71;30838;-82
2021/05/13 13:31:20;;;;;;;2.90;2.70;;;;;;;23.57;33.13;93360.36;834943;71;33021;-84
2021/05/13 13:46:08;;;;;;;3.43;3.13;;;;;;;23.97;33.52;93355.95;829013;71;29886;-83
2021/05/13 14:01:19;;;;;;;3.40;3.10;;;;;;;24.16;34.03;93359.34;816533;70;32766;-84
2021/05/13 14:16:13;;;;;;;2.30;2.20;;;;;;;23.81;33.95;93398.63;828599;71;30204;-84
2021/05/13 14:31:09;;;;;;;3.20;3.00;;;;;;;22.75;41.67;93439.93;828685;71;29779;-81
2021/05/13 14:46:15;;;;;;;2.80;2.60;;;;;;;21.87;43.69;93475.37;831630;71;32731;-81
2021/05/13 15:01:44;;;;;;;3.15;2.85;;;;;;;20.77;52.20;93497.59;830052;70;30834;-81
2021/05/13 15:16:18;;;;;;;4.10;2.70;;;;;;;20.56;55.53;93450.83;828443;71;33099;-80
2021/05/13 15:31:14;;;;;;;3.27;2.98;;;;;;;20.73;55.29;93424.83;793582;74;33024;-79
2021/05/13 15:46:28;;;;;;;3.50;3.20;;;;;;;20.49;53.21;93406.86;834917;71;32744;-81
2021/05/13 16:01:15;;;;;;;3.37;3.10;;;;;;;20.16;53.44;93417.41;834255;71;33167;-84
2021/05/13 16:16:08;;;;;;;6.53;5.12;;;;;;;19.98;53.97;93414.67;829321;71;29785;-81
2021/05/13 16:31:12;;;;;;;45.52;27.58;;;;;;;19.70;53.96;93419.25;834392;71;31978;-77
2021/05/13 16:46:08;;;;;;;17.30;12.70;;;;;;;19.57;53.89;93425.45;834412;71;29769;-80
2021/05/13 17:01:15;;;;;;;6.83;5.10;;;;;;;19.24;56.50;93440.22;834627;71;32667;-75
2021/05/13 17:16:16;;;;;;;3.92;3.62;;;;;;;18.88;58.45;93463.87;835475;71;32656;-79
2021/05/13 17:31:09;;;;;;;4.20;3.60;;;;;;;18.74;58.40;93467.88;826568;71;29834;-77
2021/05/13 17:46:08;;;;;;;8.65;7.47;;;;;;;18.69;58.84;93496.09;828215;71;29685;-77
2021/05/13 18:01:13;;;;;;;10.00;6.55;;;;;;;19.14;63.38;93526.22;828494;71;32035;-77
2021/05/13 18:16:15;;;;;;;5.90;4.92;;;;;;;18.95;61.49;93544.43;829241;70;32672;-77
2021/05/13 18:31:09;;;;;;;6.05;5.45;;;;;;;18.76;58.58;93549.91;835424;71;29694;-78
2021/05/13 18:46:19;;;;;;;11.55;6.45;;;;;;;18.53;58.97;93560.63;788231;72;33081;-77
2021/05/13 19:01:15;;;;;;;9.33;5.22;;;;;;;18.95;62.50;93584.31;823067;71;33693;-80
2021/05/13 19:16:14;;;;;;;5.42;4.92;;;;;;;19.38;56.64;93614.58;828628;71;33142;-80
2021/05/13 19:46:18;;;;;;;4.87;3.90;;;;;;;19.68;53.46;93633.12;834661;71;32707;-79
2021/05/13 20:01:14;;;;;;;4.62;4.22;;;;;;;19.61;52.62;93647.71;827734;71;32702;-81
2021/05/13 20:16:09;;;;;;;6.33;4.20;;;;;;;18.36;55.21;93671.59;828584;71;29724;-82
2021/05/13 20:31:08;;;;;;;4.53;3.92;;;;;;;18.43;55.12;93670.95;834544;71;28677;-81
2021/05/13 21:01:52;;;;;;;3.80;3.37;;;;;;;18.73;53.88;93665.66;828061;71;31718;-80
2021/05/13 21:31:08;;;;;;;3.37;3.08;;;;;;;18.57;52.70;93669.83;828998;71;28683;-81
2021/05/13 21:46:10;;;;;;;4.58;3.40;;;;;;;18.45;52.41;93698.47;834602;71;29246;-80
2021/05/13 22:01:15;;;;;;;3.25;3.05;;;;;;;18.46;52.15;93707.98;834376;71;31792;-77
2021/05/13 22:16:15;;;;;;;3.40;3.10;;;;;;;18.37;51.71;93714.31;827579;71;31714;-81
2021/05/13 22:31:15;;;;;;;3.77;3.40;;;;;;;18.30;52.07;93722.73;800470;74;31953;-80
2021/05/13 22:46:09;;;;;;;3.50;3.20;;;;;;;18.21;52.01;93742.89;834801;71;29316;-79
2021/05/13 23:01:08;;;;;;;4.00;3.00;;;;;;;18.14;51.66;93732.14;828593;71;28813;-80
2021/05/13 23:16:09;;;;;;;2.77;2.58;;;;;;;18.10;51.39;93740.04;828132;71;29879;-80
2021/05/13 23:31:08;;;;;;;2.47;2.20;;;;;;;17.93;51.70;93741.84;834164;71;28703;-79
2021/05/13 23:46:08;;;;;;;2.65;2.45;;;;;;;17.87;51.84;93748.56;834043;71;28733;-78
